Time;durP1;ratioP1;P1;durP2;ratioP2;P2;SDS_P1;SDS_P2;PMS_P1;PMS_P2;Temp;Humidity;BMP_temperature;BMP_pressure;BME280_temperature;BME280_humidity;BME280_pressure;Samples;Min_cycle;Max_cycle;Signal;HPM_P1;HPM_P2
2024/03/13 00:01:28;;;;;;;;;;;;;;;-1.30;100.00;101166.42;109488;1250;58903;-53
2024/03/13 00:03:58;;;;;;;;;;;;;;;-1.30;100.00;101162.69;109441;1251;74699;-54
2024/03/13 00:06:27;;;;;;;;;;;;;;;-1.32;100.00;101164.54;109489;1253;65753;-53
2024/03/13 00:08:55;;;;;;;;;;;;;;;-1.34;100.00;101165.12;109475;1250;72741;-59
2024/03/13 00:11:25;;;;;;;;;;;;;;;-1.35;100.00;101159.04;109468;1251;59285;-54
2024/03/13 00:13:55;;;;;;;;;;;;;;;-1.36;100.00;101159.48;109487;1251;59083;-55
2024/03/13 00:16:22;;;;;;;;;;;;;;;-1.37;100.00;101164.27;109511;1251;74728;-55
2024/03/13 00:18:51;;;;;;;;;;;;;;;-1.37;100.00;101164.63;109516;1250;65753;-55
2024/03/13 00:21:19;;;;;;;;;;;;;;;-1.39;100.00;101159.80;109437;1251;72663;-54
2024/03/13 00:23:46;;;;;;;;;;;;;;;-1.40;100.00;101158.83;109555;1250;60119;-55
2024/03/13 00:26:14;;;;;;;;;;;;;;;-1.42;100.00;101158.55;109540;1250;58901;-54
2024/03/13 00:28:42;;;;;;;;;;;;;;;-1.43;100.00;101154.05;109491;1251;74734;-54
2024/03/13 00:31:09;;;;;;;;;;;;;;;-1.43;100.00;101153.20;109574;1250;66924;-55
2024/03/13 00:33:38;;;;;;;;;;;;;;;-1.43;100.00;101153.88;109561;1250;72253;-54
2024/03/13 00:36:07;;;;;;;;;;;;;;;-1.42;100.00;101147.87;109580;1251;60177;-56
2024/03/13 00:38:34;;;;;;;;;;;;;;;-1.43;100.00;101142.95;109557;1250;59894;-55
2024/03/13 00:41:02;;;;;;;;;;;;;;;-1.42;100.00;101144.08;109661;1250;74674;-54
2024/03/13 00:43:30;;;;;;;;;;;;;;;-1.40;100.00;101143.80;109590;1250;66894;-59
2024/03/13 00:45:59;;;;;;;;;;;;;;;-1.37;100.00;101145.38;109654;1250;71376;-55
2024/03/13 00:48:31;;;;;;;;;;;;;;;-1.37;100.00;101146.54;109485;1251;60119;-54
2024/03/13 00:51:00;;;;;;;;;;;;;;;-1.38;100.00;101146.07;109531;1251;59871;-54
2024/03/13 00:53:28;;;;;;;;;;;;;;;-1.37;100.00;101139.89;109462;1251;74192;-53
2024/03/13 00:55:58;;;;;;;;;;;;;;;-1.37;100.00;101139.58;109508;1251;66928;-53
2024/03/13 00:58:26;;;;;;;;;;;;;;;-1.36;100.00;101140.52;109503;1251;72714;-56
2024/03/13 01:00:54;;;;;;;;;;;;;;;-1.35;100.00;101140.81;109481;1251;59985;-54
2024/03/13 01:03:22;;;;;;;;;;;;;;;-1.36;100.00;101136.24;109516;1251;58900;-58
2024/03/13 01:05:50;;;;;;;;;;;;;;;-1.35;100.00;101136.91;109505;1251;74696;-54
2024/03/13 01:08:17;;;;;;;;;;;;;;;-1.35;100.00;101128.16;109547;1251;66996;-55
2024/03/13 01:10:46;;;;;;;;;;;;;;;-1.34;100.00;101134.29;109487;1251;71469;-54
2024/03/13 01:13:13;;;;;;;;;;;;;;;-1.36;100.00;101129.79;109437;1252;60070;-54
2024/03/13 01:15:41;;;;;;;;;;;;;;;-1.38;100.00;101128.88;109529;1251;59191;-55
2024/03/13 01:18:09;;;;;;;;;;;;;;;-1.40;100.00;101125.59;109465;1253;72380;-55
2024/03/13 01:20:37;;;;;;;;;;;;;;;-1.42;100.00;101132.67;109530;1251;67442;-54
2024/03/13 01:23:05;;;;;;;;;;;;;;;-1.44;100.00;101126.81;109449;1251;71454;-59
2024/03/13 01:25:32;;;;;;;;;;;;;;;-1.45;100.00;101131.29;109504;1251;58968;-53
2024/03/13 01:28:00;;;;;;;;;;;;;;;-1.48;100.00;101127.18;109529;1250;58916;-54
2024/03/13 01:30:29;;;;;;;;;;;;;;;-1.50;100.00;101128.52;109537;1250;74641;-53
2024/03/13 01:32:57;;;;;;;;;;;;;;;-1.54;100.00;101129.38;109507;1251;66344;-53
2024/03/13 01:35:26;;;;;;;;;;;;;;;-1.56;100.00;101126.29;109455;1251;72656;-53
2024/03/13 01:37:58;;;;;;;;;;;;;;;-1.58;100.00;101128.77;109513;1251;60106;-53
2024/03/13 01:40:28;;;;;;;;;;;;;;;-1.60;100.00;101126.33;109508;1251;59536;-54
2024/03/13 01:57:12;;;;;;;;;;;;;;;-1.70;100.00;101126.35;109508;1251;74715;-54
2024/03/13 02:02:21;;;;;;;;;;;;;;;-1.72;100.00;101121.49;109506;1251;65638;-55
2024/03/13 02:02:41;;;;;;;;;;;;;;;-1.74;100.00;101115.48;109505;1251;71871;-54
2024/03/13 02:05:08;;;;;;;;;;;;;;;-1.75;100.00;101113.30;109424;1250;58994;-53
2024/03/13 02:07:36;;;;;;;;;;;;;;;-1.75;100.00;101111.95;109527;1251;58957;-54
2024/03/13 02:10:04;;;;;;;;;;;;;;;-1.76;100.00;101104.39;109500;1251;74721;-55
2024/03/13 02:12:31;;;;;;;;;;;;;;;-1.78;100.00;101104.95;109456;1253;67049;-53
2024/03/13 02:14:59;;;;;;;;;;;;;;;-1.77;100.00;101102.68;109483;1251;72771;-55
2024/03/13 02:17:27;;;;;;;;;;;;;;;-1.76;100.00;101103.16;109486;1251;60164;-54
2024/03/13 02:19:54;;;;;;;;;;;;;;;-1.75;100.00;101101.41;109551;1250;58918;-54
2024/03/13 02:22:22;;;;;;;;;;;;;;;-1.75;100.00;101102.55;109406;1251;74680;-55
2024/03/13 02:24:50;;;;;;;;;;;;;;;-1.74;100.00;101106.48;109401;1250;66909;-59
2024/03/13 02:27:18;;;;;;;;;;;;;;;-1.75;100.00;101106.31;109554;1250;72703;-54
2024/03/13 02:29:47;;;;;;;;;;;;;;;-1.73;100.00;101110.14;109492;1251;59518;-54
2024/03/13 02:32:14;;;;;;;;;;;;;;;-1.73;100.00;101109.61;109539;1250;58973;-54
2024/03/13 02:34:44;;;;;;;;;;;;;;;-1.72;100.00;101110.11;109669;1250;73455;-53
2024/03/13 02:37:12;;;;;;;;;;;;;;;-1.73;100.00;101116.31;109559;1251;66976;-57
2024/03/13 02:39:39;;;;;;;;;;;;;;;-1.75;100.00;101117.77;109572;1250;70620;-54
2024/03/13 02:42:09;;;;;;;;;;;;;;;-1.77;100.00;101115.00;109531;1250;60117;-53
2024/03/13 02:44:37;;;;;;;;;;;;;;;-1.77;100.00;101116.70;109540;1251;59916;-55
2024/03/13 02:47:05;;;;;;;;;;;;;;;-1.78;100.00;101115.87;109541;1250;74870;-54
2024/03/13 02:49:32;;;;;;;;;;;;;;;-1.78;100.00;101118.42;109479;1251;67038;-54
2024/03/13 02:52:00;;;;;;;;;;;;;;;-1.79;100.00;101118.28;109549;1251;71569;-54
2024/03/13 02:54:28;;;;;;;;;;;;;;;-1.79;100.00;101119.17;109499;1251;59563;-57
2024/03/13 02:56:57;;;;;;;;;;;;;;;-1.80;100.00;101121.74;109444;1251;59286;-58
2024/03/13 02:59:24;;;;;;;;;;;;;;;-1.81;100.00;101119.45;109482;1251;73430;-54
2024/03/13 03:01:52;;;;;;;;;;;;;;;-1.83;100.00;101119.02;109572;1251;65657;-55
2024/03/13 03:04:21;;;;;;;;;;;;;;;-1.84;100.00;101120.61;109512;1251;71780;-54
2024/03/13 03:06:48;;;;;;;;;;;;;;;-1.84;100.00;101118.95;109481;1251;60109;-58
2024/03/13 03:09:16;;;;;;;;;;;;;;;-1.84;100.00;101115.66;109485;1250;60459;-54
2024/03/13 03:11:44;;;;;;;;;;;;;;;-1.83;100.00;101112.89;109519;1250;74715;-55
2024/03/13 03:14:12;;;;;;;;;;;;;;;-1.82;100.00;101110.48;109544;1251;65982;-55
2024/03/13 03:16:40;;;;;;;;;;;;;;;-1.82;100.00;101107.77;109469;1254;72713;-58
2024/03/13 03:19:07;;;;;;;;;;;;;;;-1.80;100.00;101109.66;109495;1251;58906;-54
2024/03/13 03:21:35;;;;;;;;;;;;;;;-1.77;100.00;101114.64;109540;1251;59038;-54
2024/03/13 03:24:02;;;;;;;;;;;;;;;-1.75;100.00;101116.58;109498;1251;74772;-54
2024/03/13 03:26:30;;;;;;;;;;;;;;;-1.74;100.00;101111.23;109528;1250;66214;-54
2024/03/13 03:28:57;;;;;;;;;;;;;;;-1.73;100.00;101110.86;109494;1252;72768;-59
2024/03/13 03:31:25;;;;;;;;;;;;;;;-1.73;100.00;101114.58;109497;1251;59123;-54
2024/03/13 03:33:53;;;;;;;;;;;;;;;-1.72;100.00;101108.58;109524;1251;59864;-54
2024/03/13 03:36:20;;;;;;;;;;;;;;;-1.71;100.00;101108.17;109524;1251;74726;-53
2024/03/13 03:38:48;;;;;;;;;;;;;;;-1.71;100.00;101109.67;109515;1250;66830;-54
2024/03/13 03:41:16;;;;;;;;;;;;;;;-1.72;100.00;101115.34;109512;1251;73090;-54
2024/03/13 03:43:43;;;;;;;;;;;;;;;-1.72;100.00;101120.16;109536;1251;59061;-55
2024/03/13 03:46:14;;;;;;;;;;;;;;;-1.73;100.00;101122.08;109536;1250;59796;-54
2024/03/13 03:48:41;;;;;;;;;;;;;;;-1.75;100.00;101128.29;109484;1251;74707;-56
2024/03/13 03:51:16;;;;;;;;;;;;;;;-1.75;100.00;101125.93;109481;1251;68251;-54
2024/03/13 03:53:47;;;;;;;;;;;;;;;-1.76;100.00;101123.08;109509;1251;71461;-54
2024/03/13 03:56:16;;;;;;;;;;;;;;;-1.78;100.00;101124.71;109478;1251;58904;-59
2024/03/13 03:58:43;;;;;;;;;;;;;;;-1.78;100.00;101121.34;109504;1251;60383;-55
2024/03/13 04:01:12;;;;;;;;;;;;;;;-1.81;100.00;101121.82;109525;1251;72911;-54
2024/03/13 04:03:41;;;;;;;;;;;;;;;-1.82;100.00;101115.73;109551;1251;67136;-54
2024/03/13 04:06:08;;;;;;;;;;;;;;;-1.83;100.00;101120.20;109486;1251;71029;-55
2024/03/13 04:08:36;;;;;;;;;;;;;;;-1.83;100.00;101118.70;109499;1250;59857;-54
2024/03/13 04:11:03;;;;;;;;;;;;;;;-1.84;100.00;101116.36;109501;1251;59948;-55
2024/03/13 04:13:31;;;;;;;;;;;;;;;-1.84;100.00;101113.80;109488;1251;72808;-55
2024/03/13 04:16:04;;;;;;;;;;;;;;;-1.82;100.00;101113.88;109512;1250;65710;-55
2024/03/13 04:18:32;;;;;;;;;;;;;;;-1.80;100.00;101115.46;109480;1251;72790;-54
2024/03/13 04:21:00;;;;;;;;;;;;;;;-1.78;100.00;101113.84;109490;1254;60094;-54
2024/03/13 04:23:29;;;;;;;;;;;;;;;-1.76;100.00;101121.38;109572;1250;59868;-55
2024/03/13 04:25:57;;;;;;;;;;;;;;;-1.74;100.00;101123.32;109481;1251;73413;-55
2024/03/13 04:28:24;;;;;;;;;;;;;;;-1.72;100.00;101125.75;109439;1251;65813;-55
2024/03/13 04:30:52;;;;;;;;;;;;;;;-1.68;100.00;101130.33;109484;1251;72815;-55
2024/03/13 04:33:19;;;;;;;;;;;;;;;-1.64;100.00;101134.42;109485;1251;60122;-54
2024/03/13 04:35:47;;;;;;;;;;;;;;;-1.61;100.00;101133.55;109484;1251;59911;-55
2024/03/13 04:38:15;;;;;;;;;;;;;;;-1.60;100.00;101136.19;109507;1251;74059;-59
2024/03/13 04:40:43;;;;;;;;;;;;;;;-1.57;100.00;101139.83;109458;1251;67799;-54
2024/03/13 04:43:10;;;;;;;;;;;;;;;-1.55;100.00;101140.71;109549;1251;71417;-54
2024/03/13 04:45:38;;;;;;;;;;;;;;;-1.54;100.00;101147.13;109538;1251;59089;-54
2024/03/13 04:48:06;;;;;;;;;;;;;;;-1.51;100.00;101146.80;109515;1251;59975;-54
2024/03/13 04:50:38;;;;;;;;;;;;;;;-1.49;100.00;101142.06;109483;1251;75545;-54
2024/03/13 04:53:05;;;;;;;;;;;;;;;-1.48;100.00;101136.21;109517;1251;66995;-54
2024/03/13 04:55:33;;;;;;;;;;;;;;;-1.45;100.00;101134.52;109494;1251;74920;-54
2024/03/13 04:58:01;;;;;;;;;;;;;;;-1.41;100.00;101137.77;109433;1254;61180;-54
2024/03/13 05:00:28;;;;;;;;;;;;;;;-1.38;100.00;101139.12;109464;1251;59520;-55
2024/03/13 05:02:56;;;;;;;;;;;;;;;-1.34;100.00;101140.77;109540;1251;75658;-54
2024/03/13 05:05:23;;;;;;;;;;;;;;;-1.28;100.00;101141.80;109482;1251;67215;-55
2024/03/13 05:07:51;;;;;;;;;;;;;;;-1.23;100.00;101138.60;109483;1251;71489;-54
2024/03/13 05:10:23;;;;;;;;;;;;;;;-1.17;100.00;101139.67;109434;1251;60046;-59
2024/03/13 05:12:52;;;;;;;;;;;;;;;-1.13;98.61;101137.52;109483;1251;58911;-55
2024/03/13 05:15:19;;;;;;;;;;;;;;;-1.10;95.90;101135.98;109492;1251;73486;-54
2024/03/13 05:17:49;;;;;;;;;;;;;;;-1.05;94.80;101132.16;109531;1251;67408;-54
2024/03/13 05:20:17;;;;;;;;;;;;;;;-1.01;93.45;101131.92;109485;1251;71425;-54
2024/03/13 05:22:46;;;;;;;;;;;;;;;-0.97;92.19;101128.27;109451;1256;59414;-53
2024/03/13 05:25:19;;;;;;;;;;;;;;;-0.92;90.70;101129.71;109498;1251;59040;-54
2024/03/13 05:27:47;;;;;;;;;;;;;;;-0.89;90.30;101135.31;109515;1251;72945;-54
2024/03/13 05:30:15;;;;;;;;;;;;;;;-0.85;89.38;101128.95;109498;1251;66833;-55
2024/03/13 05:32:43;;;;;;;;;;;;;;;-0.81;88.43;101131.79;109450;1253;71388;-55
2024/03/13 05:35:12;;;;;;;;;;;;;;;-0.77;87.85;101133.44;109485;1252;60132;-54
2024/03/13 05:37:40;;;;;;;;;;;;;;;-0.73;86.74;101132.70;109467;1253;58887;-55
2024/03/13 05:40:16;;;;;;;;;;;;;;;-0.68;87.09;101129.86;109452;1253;74677;-54
2024/03/13 05:42:45;;;;;;;;;;;;;;;-0.62;86.21;101135.63;109442;1253;67548;-54
2024/03/13 05:45:13;;;;;;;;;;;;;;;-0.57;85.11;101131.78;109492;1253;72728;-55
2024/03/13 05:47:41;;;;;;;;;;;;;;;-0.52;84.25;101132.48;109467;1253;60124;-54
2024/03/13 05:50:12;;;;;;;;;;;;;;;-0.45;83.86;101138.44;109488;1253;60416;-54
2024/03/13 05:52:40;;;;;;;;;;;;;;;-0.38;83.37;101136.80;109442;1255;74605;-55
2024/03/13 05:55:08;;;;;;;;;;;;;;;-0.32;82.69;101144.79;109494;1252;66908;-54
2024/03/13 05:57:38;;;;;;;;;;;;;;;-0.25;81.98;101137.58;109526;1253;74192;-56
2024/03/13 06:00:12;;;;;;;;;;;;;;;-0.19;80.74;101140.80;109432;1250;62826;-58
2024/03/13 06:02:43;;;;;;;;;;;;;;;-0.14;80.14;101147.98;109503;1253;60603;-55
2024/03/13 06:05:14;;;;;;;;;;;;;;;-0.08;79.16;101150.58;109488;1250;74742;-54
2024/03/13 06:07:42;;;;;;;;;;;;;;;-0.04;77.53;101154.20;109519;1251;67156;-56
2024/03/13 06:10:10;;;;;;;;;;;;;;;0.04;77.37;101158.04;109448;1252;73237;-55
2024/03/13 06:12:38;;;;;;;;;;;;;;;0.12;76.46;101159.58;109481;1252;60365;-54
2024/03/13 06:15:14;;;;;;;;;;;;;;;0.20;73.66;101160.27;109535;1251;62122;-54
2024/03/13 06:17:42;;;;;;;;;;;;;;;0.29;70.94;101161.61;109499;1252;74763;-59
2024/03/13 06:20:13;;;;;;;;;;;;;;;0.38;67.60;101162.10;109516;1251;66709;-54
2024/03/13 06:22:41;;;;;;;;;;;;;;;0.47;65.72;101165.80;109411;1251;74807;-54
2024/03/13 06:25:08;;;;;;;;;;;;;;;0.57;63.55;101156.46;109443;1253;59337;-54
2024/03/13 06:27:37;;;;;;;;;;;;;;;0.66;60.83;101164.08;109469;1251;59886;-55
2024/03/13 06:30:05;;;;;;;;;;;;;;;0.77;58.86;101162.73;109464;1251;77187;-55
2024/03/13 06:32:33;;;;;;;;;;;;;;;0.92;58.11;101160.20;109522;1251;69957;-55
2024/03/13 06:35:02;;;;;;;;;;;;;;;1.18;56.81;101161.98;109469;1251;74936;-54
2024/03/13 06:37:31;;;;;;;;;;;;;;;1.44;55.27;101159.04;109452;1251;60829;-58
2024/03/13 06:39:59;;;;;;;;;;;;;;;1.64;53.73;101158.73;109457;1251;61299;-55
2024/03/13 06:42:27;;;;;;;;;;;;;;;1.76;52.90;101156.93;109494;1254;74675;-53
2024/03/13 06:44:54;;;;;;;;;;;;;;;1.87;52.51;101158.02;109546;1251;66794;-53
2024/03/13 06:47:22;;;;;;;;;;;;;;;1.99;51.90;101159.29;109532;1251;75210;-54
2024/03/13 06:49:50;;;;;;;;;;;;;;;2.06;51.10;101156.58;109479;1251;60981;-53
2024/03/13 06:52:17;;;;;;;;;;;;;;;2.09;50.60;101157.35;109543;1252;62027;-53
2024/03/13 06:54:45;;;;;;;;;;;;;;;2.18;50.56;101159.87;109520;1250;76099;-53
2024/03/13 06:57:13;;;;;;;;;;;;;;;2.28;50.29;101152.12;109537;1251;67715;-54
2024/03/13 06:59:41;;;;;;;;;;;;;;;2.37;49.82;101153.85;109475;1251;74321;-54
2024/03/13 07:02:13;;;;;;;;;;;;;;;2.46;49.42;101145.70;109523;1253;60470;-53
2024/03/13 07:04:42;;;;;;;;;;;;;;;2.62;49.26;101142.48;109563;1251;60885;-54
2024/03/13 07:07:10;;;;;;;;;;;;;;;2.74;48.86;101142.00;109495;1251;76122;-54
2024/03/13 07:09:39;;;;;;;;;;;;;;;2.90;48.79;101139.79;109482;1251;68742;-58
2024/03/13 07:12:07;;;;;;;;;;;;;;;3.09;48.48;101138.05;109473;1251;74764;-54
2024/03/13 07:14:35;;;;;;;;;;;;;;;3.28;47.83;101132.73;109465;1251;61411;-54
2024/03/13 07:17:02;;;;;;;;;;;;;;;3.49;47.68;101135.09;109516;1251;60842;-55
2024/03/13 07:19:32;;;;;;;;;;;;;;;3.85;47.25;101132.67;109489;1253;76685;-53
2024/03/13 07:22:03;;;;;;;;;;;;;;;4.16;46.52;101123.55;109488;1252;69311;-55
2024/03/13 07:24:31;;;;;;;;;;;;;;;4.45;45.96;101123.70;109483;1251;74748;-55
2024/03/13 07:26:58;;;;;;;;;;;;;;;4.65;45.39;101118.80;109465;1252;61326;-55
2024/03/13 07:29:27;;;;;;;;;;;;;;;4.74;44.84;101110.36;109457;1251;61757;-56
2024/03/13 07:31:56;;;;;;;;;;;;;;;4.88;44.87;101110.74;109485;1250;76784;-56
2024/03/13 07:34:23;;;;;;;;;;;;;;;5.04;44.14;101105.52;109537;1250;67999;-56
2024/03/13 07:36:51;;;;;;;;;;;;;;;5.06;43.91;101103.05;109484;1252;71433;-55
2024/03/13 07:39:20;;;;;;;;;;;;;;;5.14;43.98;101093.00;109459;1253;59525;-55
2024/03/13 07:41:51;;;;;;;;;;;;;;;5.41;43.72;101102.27;109458;1251;60747;-55
2024/03/13 07:44:19;;;;;;;;;;;;;;;5.57;42.86;101095.38;109533;1251;78073;-54
2024/03/13 07:46:47;;;;;;;;;;;;;;;5.64;42.92;101092.38;109502;1251;67766;-53
2024/03/13 07:49:14;;;;;;;;;;;;;;;5.73;42.60;101085.04;109492;1251;73711;-54
2024/03/13 07:51:45;;;;;;;;;;;;;;;5.75;42.06;101089.05;109401;1251;61340;-57
2024/03/13 07:54:12;;;;;;;;;;;;;;;5.66;42.03;101080.33;109493;1253;61787;-54
2024/03/13 07:56:40;;;;;;;;;;;;;;;5.65;42.06;101078.83;109543;1251;75794;-54
2024/03/13 07:59:07;;;;;;;;;;;;;;;5.74;41.96;101080.71;109552;1251;69303;-54
2024/03/13 08:01:41;;;;;;;;;;;;;;;5.87;41.57;101080.72;109488;1251;74844;-59
2024/03/13 08:04:11;;;;;;;;;;;;;;;5.92;41.54;101081.55;109499;1251;59209;-54
2024/03/13 08:06:39;;;;;;;;;;;;;;;6.04;41.81;101070.69;109492;1251;60702;-54
2024/03/13 08:09:28;;;;;;;;;;;;;;;6.43;41.39;101065.36;109490;1251;76708;-54
2024/03/13 08:12:13;;;;;;;;;;;;;;;6.57;40.60;101068.18;109507;1251;67746;-54
2024/03/13 08:14:58;;;;;;;;;;;;;;;6.50;40.48;101059.36;109458;1251;73386;-54
2024/03/13 08:17:42;;;;;;;;;;;;;;;6.43;40.55;101061.19;109506;1251;60165;-53
2024/03/13 08:20:27;;;;;;;;;;;;;;;6.34;40.29;101065.10;109432;1253;62295;-53
2024/03/13 08:23:12;;;;;;;;;;;;;;;6.13;40.48;101069.06;109561;1251;75584;-54
2024/03/13 08:25:59;;;;;;;;;;;;;;;5.91;40.68;101063.88;109487;1250;68507;-56
2024/03/13 08:28:44;;;;;;;;;;;;;;;5.77;40.92;101055.55;109525;1251;74856;-54
2024/03/13 08:31:29;;;;;;;;;;;;;;;5.80;41.28;101046.83;109425;1250;59947;-54
2024/03/13 08:34:14;;;;;;;;;;;;;;;5.88;41.27;101050.80;109473;1251;61943;-54
2024/03/13 08:36:59;;;;;;;;;;;;;;;6.01;41.08;101043.84;109431;1251;75990;-56
2024/03/13 08:39:44;;;;;;;;;;;;;;;6.07;40.73;101041.89;109544;1251;68858;-54
2024/03/13 08:42:29;;;;;;;;;;;;;;;6.07;40.75;101028.65;109499;1251;74820;-59
2024/03/13 08:45:14;;;;;;;;;;;;;;;6.23;40.94;101028.98;109506;1251;62693;-55
2024/03/13 08:48:02;;;;;;;;;;;;;;;6.48;40.09;101039.18;109434;1251;60897;-59
2024/03/13 08:50:47;;;;;;;;;;;;;;;6.41;38.74;101033.63;109470;1251;76656;-54
2024/03/13 08:53:32;;;;;;;;;;;;;;;6.30;39.00;101034.06;109489;1251;67131;-58
2024/03/13 08:56:17;;;;;;;;;;;;;;;6.39;39.25;101026.52;109465;1251;75374;-55
2024/03/13 08:59:02;;;;;;;;;;;;;;;6.52;39.48;101028.41;109372;1251;60394;-55
2024/03/13 09:01:46;;;;;;;;;;;;;;;6.66;39.23;101025.84;109517;1251;61039;-55
2024/03/13 09:04:33;;;;;;;;;;;;;;;6.64;38.39;101031.51;109453;1251;75970;-55
2024/03/13 09:07:17;;;;;;;;;;;;;;;6.48;38.56;101027.76;109547;1251;69649;-54
2024/03/13 09:09:45;;;;;;;;;;;;;;;6.35;38.58;101038.28;109493;1251;76187;-54
2024/03/13 09:12:15;;;;;;;;;;;;;;;6.16;38.65;101031.02;109436;1251;61399;-54
2024/03/13 09:14:42;;;;;;;;;;;;;;;6.01;38.72;101039.05;109520;1251;60844;-54
2024/03/13 09:17:10;;;;;;;;;;;;;;;5.85;39.06;101032.81;109466;1252;75775;-54
2024/03/13 09:19:37;;;;;;;;;;;;;;;5.76;39.49;101029.25;109521;1250;68887;-54
2024/03/13 09:22:07;;;;;;;;;;;;;;;5.75;39.69;101030.58;109459;1251;73580;-54
2024/03/13 09:24:35;;;;;;;;;;;;;;;5.66;39.81;101031.50;109502;1251;59439;-54
2024/03/13 09:27:02;;;;;;;;;;;;;;;5.60;39.99;101015.94;109533;1251;61922;-55
2024/03/13 09:29:31;;;;;;;;;;;;;;;5.67;39.82;101018.63;109435;1251;76932;-54
2024/03/13 09:31:59;;;;;;;;;;;;;;;5.64;39.45;101015.47;109475;1251;68267;-55
2024/03/13 09:34:29;;;;;;;;;;;;;;;5.61;39.93;101006.23;109446;1252;74881;-54
2024/03/13 09:36:59;;;;;;;;;;;;;;;5.68;40.14;100998.91;109520;1251;61302;-55
2024/03/13 09:39:27;;;;;;;;;;;;;;;5.79;39.90;100995.02;109502;1251;61834;-54
2024/03/13 09:41:55;;;;;;;;;;;;;;;5.91;39.79;100992.63;109524;1251;76924;-54
2024/03/13 09:44:22;;;;;;;;;;;;;;;6.08;39.29;100985.11;109437;1251;70140;-59
2024/03/13 09:46:51;;;;;;;;;;;;;;;6.24;38.90;100985.41;109468;1251;74670;-54
2024/03/13 09:49:25;;;;;;;;;;;;;;;6.46;38.68;100975.77;109467;1251;61370;-55
2024/03/13 09:51:53;;;;;;;;;;;;;;;6.70;38.33;100968.97;109491;1252;61929;-54
2024/03/13 09:54:21;;;;;;;;;;;;;;;6.85;38.17;100957.91;109501;1251;76713;-59
2024/03/13 09:56:49;;;;;;;;;;;;;;;6.95;37.51;100957.64;109522;1251;68678;-55
2024/03/13 09:59:17;;;;;;;;;;;;;;;6.92;37.46;100962.98;109488;1253;75090;-55
2024/03/13 10:01:47;;;;;;;;;;;;;;;6.86;37.31;100960.44;109434;1251;60417;-55
2024/03/13 10:04:24;;;;;;;;;;;;;;;6.72;37.45;100953.09;109482;1251;60941;-55
2024/03/13 10:06:56;;;;;;;;;;;;;;;6.65;37.59;100954.06;109469;1251;77084;-55
2024/03/13 10:09:25;;;;;;;;;;;;;;;6.69;37.44;100952.52;109522;1251;67911;-55
2024/03/13 10:11:53;;;;;;;;;;;;;;;6.80;37.38;100952.50;109465;1254;74840;-55
2024/03/13 10:14:21;;;;;;;;;;;;;;;7.02;36.87;100944.59;109439;1251;61414;-59
2024/03/13 10:16:51;;;;;;;;;;;;;;;7.32;36.83;100930.67;109501;1251;62623;-56
2024/03/13 10:19:26;;;;;;;;;;;;;;;7.81;36.00;100936.60;109564;1251;76801;-56
2024/03/13 10:21:54;;;;;;;;;;;;;;;8.22;35.09;100925.34;109369;1251;68199;-56
2024/03/13 10:24:25;;;;;;;;;;;;;;;8.49;33.97;100919.30;109466;1251;75570;-55
2024/03/13 10:26:53;;;;;;;;;;;;;;;8.61;33.46;100919.98;109456;1251;61337;-55
2024/03/13 10:29:20;;;;;;;;;;;;;;;8.60;33.13;100924.20;109459;1251;60791;-55
2024/03/13 10:31:48;;;;;;;;;;;;;;;8.57;33.22;100920.48;109493;1251;76715;-55
2024/03/13 10:34:16;;;;;;;;;;;;;;;8.50;33.11;100921.12;109457;1255;67923;-55
2024/03/13 10:36:43;;;;;;;;;;;;;;;8.41;33.02;100920.33;109502;1254;75274;-55
2024/03/13 10:39:12;;;;;;;;;;;;;;;8.35;33.45;100913.08;109483;1251;62241;-55
2024/03/13 10:41:44;;;;;;;;;;;;;;;8.42;32.97;100919.41;109516;1251;61888;-55
2024/03/13 10:44:12;;;;;;;;;;;;;;;8.34;32.98;100917.86;109494;1251;76632;-56
2024/03/13 10:46:41;;;;;;;;;;;;;;;8.27;33.16;100921.33;109501;1251;68523;-55
2024/03/13 10:49:13;;;;;;;;;;;;;;;8.23;33.20;100919.52;109468;1252;75184;-55
2024/03/13 10:51:41;;;;;;;;;;;;;;;8.18;33.01;100919.96;109492;1254;62661;-56
2024/03/13 10:54:10;;;;;;;;;;;;;;;8.12;33.03;100907.45;109448;1251;61958;-55
2024/03/13 10:56:38;;;;;;;;;;;;;;;8.09;32.91;100896.16;109461;1253;76669;-55
2024/03/13 10:59:06;;;;;;;;;;;;;;;8.04;32.74;100905.38;109525;1251;68943;-54
2024/03/13 11:01:37;;;;;;;;;;;;;;;7.95;32.84;100898.52;109457;1254;73935;-54
2024/03/13 11:04:05;;;;;;;;;;;;;;;7.87;33.22;100906.08;109434;1251;60295;-54
2024/03/13 11:06:33;;;;;;;;;;;;;;;7.93;33.60;100895.59;109469;1251;59344;-54
2024/03/13 11:09:00;;;;;;;;;;;;;;;8.07;33.36;100903.29;109487;1251;75265;-54
2024/03/13 11:11:29;;;;;;;;;;;;;;;8.09;33.48;100897.89;109510;1254;67820;-55
2024/03/13 11:13:58;;;;;;;;;;;;;;;8.20;33.67;100898.33;109439;1251;72488;-54
2024/03/13 11:16:25;;;;;;;;;;;;;;;8.38;33.46;100906.39;109457;1251;61359;-54
2024/03/13 11:18:55;;;;;;;;;;;;;;;8.41;33.01;100885.25;109489;1251;61337;-54
2024/03/13 11:21:29;;;;;;;;;;;;;;;8.39;33.11;100882.80;109489;1251;78101;-54
2024/03/13 11:24:00;;;;;;;;;;;;;;;8.52;32.99;100891.05;109441;1251;67894;-54
2024/03/13 11:26:29;;;;;;;;;;;;;;;8.57;32.90;100883.13;109460;1251;74810;-54
2024/03/13 11:29:00;;;;;;;;;;;;;;;8.58;32.92;100894.41;109484;1251;61375;-54
2024/03/13 11:31:28;;;;;;;;;;;;;;;8.53;33.05;100888.64;109466;1251;61048;-54
2024/03/13 11:33:56;;;;;;;;;;;;;;;8.64;33.18;100895.00;109454;1253;75372;-54
2024/03/13 11:36:24;;;;;;;;;;;;;;;8.75;32.71;100881.79;109498;1250;68837;-53
2024/03/13 11:38:52;;;;;;;;;;;;;;;8.62;32.76;100886.92;109429;1251;76544;-54
2024/03/13 11:41:20;;;;;;;;;;;;;;;8.44;33.06;100875.91;109450;1251;60310;-59
2024/03/13 11:43:49;;;;;;;;;;;;;;;8.35;33.32;100878.98;109470;1251;62126;-54
2024/03/13 11:46:22;;;;;;;;;;;;;;;8.25;33.60;100875.28;109473;1251;75633;-53
2024/03/13 11:48:49;;;;;;;;;;;;;;;8.06;33.75;100875.17;109509;1251;68812;-55
2024/03/13 11:51:17;;;;;;;;;;;;;;;7.86;34.15;100877.23;109497;1254;74659;-57
2024/03/13 11:53:47;;;;;;;;;;;;;;;7.77;34.34;100866.05;109408;1252;61197;-54
2024/03/13 11:56:21;;;;;;;;;;;;;;;7.74;34.39;100867.39;109483;1251;62241;-54
2024/03/13 11:58:49;;;;;;;;;;;;;;;7.73;34.46;100859.13;109520;1251;78199;-54
2024/03/13 12:01:17;;;;;;;;;;;;;;;7.79;34.47;100860.08;109481;1251;70073;-59
2024/03/13 12:03:47;;;;;;;;;;;;;;;7.91;34.52;100858.05;109494;1251;76198;-54
2024/03/13 12:06:21;;;;;;;;;;;;;;;8.03;34.37;100849.98;109468;1252;60253;-55
2024/03/13 12:08:52;;;;;;;;;;;;;;;8.15;34.06;100855.51;109495;1253;61363;-54
2024/03/13 12:11:20;;;;;;;;;;;;;;;8.13;33.71;100842.44;109481;1250;76989;-59
2024/03/13 12:13:47;;;;;;;;;;;;;;;8.08;33.86;100846.58;109493;1251;67836;-54
2024/03/13 12:16:16;;;;;;;;;;;;;;;8.09;33.74;100831.09;109479;1251;74990;-54
2024/03/13 12:18:47;;;;;;;;;;;;;;;8.14;33.79;100829.92;109472;1251;61511;-54
2024/03/13 12:21:15;;;;;;;;;;;;;;;8.20;33.67;100829.56;109507;1251;60140;-54
2024/03/13 12:23:45;;;;;;;;;;;;;;;8.23;33.70;100821.31;109611;1251;76656;-54
2024/03/13 12:26:13;;;;;;;;;;;;;;;8.21;33.62;100830.15;109548;1250;69495;-54
2024/03/13 12:28:40;;;;;;;;;;;;;;;8.20;33.56;100827.81;109594;1251;74671;-55
2024/03/13 12:31:08;;;;;;;;;;;;;;;8.19;33.18;100823.61;109559;1251;61140;-54
2024/03/13 12:33:38;;;;;;;;;;;;;;;8.14;33.05;100835.92;109448;1251;62547;-56
2024/03/13 12:36:06;;;;;;;;;;;;;;;8.07;33.20;100816.86;109612;1251;74655;-55
2024/03/13 12:38:37;;;;;;;;;;;;;;;8.12;33.38;100814.17;109595;1251;70250;-55
2024/03/13 12:41:08;;;;;;;;;;;;;;;8.26;33.23;100815.15;109568;1251;72206;-54
2024/03/13 12:43:36;;;;;;;;;;;;;;;8.33;33.24;100808.58;109523;1251;61362;-54
2024/03/13 12:46:06;;;;;;;;;;;;;;;8.40;33.23;100810.85;109605;1251;61136;-54
2024/03/13 12:48:33;;;;;;;;;;;;;;;8.45;33.09;100809.44;109519;1251;76792;-54
2024/03/13 12:51:01;;;;;;;;;;;;;;;8.48;33.34;100805.00;109498;1251;68865;-59
2024/03/13 12:53:29;;;;;;;;;;;;;;;8.51;33.01;100812.79;109475;1251;74440;-54
2024/03/13 12:55:58;;;;;;;;;;;;;;;8.55;33.16;100805.03;109479;1251;60640;-55